Terminal Aerodrome Forecast
Issued by NWS

Home | Current Version | Previous Version | Text Only | Print | Product List | Glossary On
Versions: 1 2 3 4 5 6 7 8 9 10 11 12 13 14 15 16 17 18 19 20 21 22
000
FTUS41 KPBZ 020200 AAA
TAFLBE
TAF AMD
KLBE 020222Z 0202/0224 00000KT 4SM BR SCT012
     FM020600 00000KT 2SM BR BKN006
     FM021400 VRB03KT P6SM SCT025=

USA.gov is the U.S. government's official web portal to all federal, state and local government web resources and services.